Detall de PIREP

Printer-friendly versionPDF version

[2009/04/17 15:39:00]
Flight IATA:CT1021
Pilot Number:026
Company ICAO:CAT
Aircraft Type:B75F/E
PAX:0
Departing Airport: KEWR
Destination Airport: LPAZ
Alternate Airport:LPPD
Online: VATSIM
Route:DIXIE V276 MANTA N15B KENDA N15B JOBOC/N0410F310 4165N 4260N 4250N/M080F330 4140N/M080F350 KOKER FRS VFL RODIL
Flight Level:FL350
No Slew and time accel
No pause
Crash detect
Detect pilot in Cockpit between each 30 and 45 minutes
15:39 Zero fuel Weight: 196082 Lbs, Fuel Weight: 59997 Lbs
15:39 VATSIM:KEWR 171451Z 04006KT 10SM SCT250 16/M07 A3029 RMK AO2 SLP255 T01561067 58006
15:39 VATSIM:LPAZ 171530Z 26013KT 9999 FEW012 18/14 Q1022
15:39 VOICE CATALONIAN / BOEING TRANSPORT
15:42 Parking Brakes off
15:59 Take-off
15:59 Take off Weight: 254230 Lbs
15:59 Wind: 015º @ 003 Knots Heading: 025º
15:59 POS N40º 41´ 30´´ W074º 10´ 08´´
15:59 Gear Up: 172 Knots
15:59 Flaps:3 at 17
2 Knots
16:00 Flaps:2 at 175 Knots
16:00 Flaps:1 at 208 Knots
16:00 Flaps:0 at 207 Knots
16:14 Wind:295º@017 Knots Heading: 097º Ground Speed: 433 Knots Altitude 31345 ft
16:29 Wind:275º@021 Knots Heading: 093º Ground Speed: 489 Knots Altitude 31302 ft
16:44 Wind:270º@026 Knots Heading: 073º Ground Speed: 489 Knots Altitude 32257 ft
16:59 Wind:267º@030 Knots Heading: 058º Ground Speed: 492 Knots Altitude 32194 ft
17:14 Wind:268º@038 Knots Heading: 073º Ground Speed: 498 Knots Altitude 32992 ft
17:29 Wind:269º@048 Knots Heading: 074º Ground Speed: 502 Knots Altitude 32982 ft
17:44 Wind:267º@054 Knots Heading: 088º Ground Speed: 518 Knots Altitude 32962 ft
17:59 Wind:268º@049 Knots Heading: 090º Ground Speed: 502 Knots Altitude 32893 ft
18:14 Wind:268º@057 Knots Heading: 092º Ground Speed: 507 Knots Altitude 32814 ft
18:29 Wind:267º@064 Knots Heading: 095º Ground Sp
eed: 513 Knots Altitude 32769 ft
18:44 Wind:270º@052 Knots Heading: 097º Ground Speed: 503 Knots Altitude 32824 ft
18:59 Wind:266º@053 Knots Heading: 100º Ground Speed: 505 Knots Altitude 32893 ft
19:14 Wind:264º@054 Knots Heading: 102º Ground Speed: 513 Knots Altitude 33021 ft
19:22 TOC
19:22 Fuel Weight: 24938 Lb
19:29 Wind:255º@046 Knots Heading: 104º Ground Speed: 504 Knots Altitude 35108 ft
19:44 Wind:259º@037 Knots Heading: 105º Ground Speed: 497 Knots Altitude 35108 ft
19:59 Wind:252º@033 Knots Heading: 105º Ground Speed: 462 Knots Altitude 35088 ft
20:14 Wind:259º@034 Knots Heading: 117º Ground Speed: 478 Knots Altitude 35098 ft
20:29 Wind:241º@032 Knots Heading: 122º Ground Speed: 487 Knots Altitude 35173 ft
20:37 TOD
20:37 Fuel Weight: 15047 Lb
20:44 Wind:259º@044 Knots Heading: 124º Ground Speed: 430 Knots Altitude 21709 ft
20:59 Wind:272º@012 Knots He
ading: 332º Ground Speed: 219 Knots Altitude 2408 ft
21:02 Flaps:1 at 211 Knots
21:03 Flaps:0 at 217 Knots
21:11 Flaps:1 at 208 Knots
21:11 Gear Down: 203 Knots
21:11 Flaps:2 at 199 Knots
21:12 Flaps:3 at 183 Knots
21:12 Flaps:4 at 182 Knots
21:13 Flaps:5 at 180 Knots
21:13 Flaps:6 at 180 Knots
21:13 TouchDown:Rate -512 ft/min Speed: 151 Knots
21:13 VATSIM:LPAZ 172100Z 25011KT 9999 FEW020 16/14 Q1023
21:13 Land
21:13 Wind:262º@011 Knots
21:13 Heading: 172º
21:13 Flight Duration: 05:14
21:13 Landing Weight: 208043 Lbs
21:13 POS N36º 58´ 02´´ W025º 10´ 11´´
21:17 Parking brakes on
21:17 Block to Block Duration: 05:35
21:17 Final Fuel: 11635 Lbls
21:17 Spent Fuel: 48362 Lbls
21:17 Flight Length: 2444 NM
21:17 TOD Land Length: 178 NM

Exportar CSV

Powered by Drupal - Modified by Danger4k